sensor_id;sensor_type;location;lat;lon;timestamp;P1;durP1;ratioP1;P2;durP2;ratioP2
29960;SDS011;16816;44.444;26.152;2022-11-20T00:02:48;74.23;;;25.30;;
29960;SDS011;16816;44.444;26.152;2022-11-20T00:07:52;72.15;;;25.40;;
29960;SDS011;16816;44.444;26.152;2022-11-20T00:12:58;76.35;;;27.75;;
29960;SDS011;16816;44.444;26.152;2022-11-20T00:18:02;76.85;;;27.33;;
29960;SDS011;16816;44.444;26.152;2022-11-20T00:23:06;77.47;;;27.80;;
29960;SDS011;16816;44.444;26.152;2022-11-20T00:28:11;77.60;;;27.92;;
29960;SDS011;16816;44.444;26.152;2022-11-20T00:33:15;77.57;;;29.50;;
29960;SDS011;16816;44.444;26.152;2022-11-20T00:38:19;80.78;;;31.85;;
29960;SDS011;16816;44.444;26.152;2022-11-20T00:43:24;82.90;;;33.78;;
29960;SDS011;16816;44.444;26.152;2022-11-20T00:48:28;80.33;;;31.47;;
29960;SDS011;16816;44.444;26.152;2022-11-20T00:53:32;83.82;;;35.58;;
29960;SDS011;16816;44.444;26.152;2022-11-20T00:58:38;86.60;;;36.20;;
29960;SDS011;16816;44.444;26.152;2022-11-20T01:03:43;86.55;;;38.50;;
29960;SDS011;16816;44.444;26.152;2022-11-20T01:08:48;84.67;;;35.77;;
29960;SDS011;16816;44.444;26.152;2022-11-20T01:13:55;88.77;;;39.57;;
29960;SDS011;16816;44.444;26.152;2022-11-20T01:19:01;89.18;;;41.28;;
29960;SDS011;16816;44.444;26.152;2022-11-20T01:24:07;91.47;;;42.33;;
29960;SDS011;16816;44.444;26.152;2022-11-20T01:29:14;89.72;;;41.38;;
29960;SDS011;16816;44.444;26.152;2022-11-20T01:34:20;92.28;;;43.13;;
29960;SDS011;16816;44.444;26.152;2022-11-20T01:39:25;93.82;;;45.63;;
29960;SDS011;16816;44.444;26.152;2022-11-20T01:49:55;94.65;;;44.25;;
29960;SDS011;16816;44.444;26.152;2022-11-20T01:55:02;96.38;;;47.85;;
29960;SDS011;16816;44.444;26.152;2022-11-20T02:00:11;95.95;;;48.00;;
29960;SDS011;16816;44.444;26.152;2022-11-20T02:05:19;97.43;;;47.38;;
29960;SDS011;16816;44.444;26.152;2022-11-20T02:10:26;98.15;;;48.35;;
29960;SDS011;16816;44.444;26.152;2022-11-20T02:15:33;101.97;;;51.45;;
29960;SDS011;16816;44.444;26.152;2022-11-20T02:20:37;101.35;;;51.80;;
29960;SDS011;16816;44.444;26.152;2022-11-20T02:25:43;100.13;;;53.78;;
29960;SDS011;16816;44.444;26.152;2022-11-20T02:30:49;100.10;;;50.00;;
29960;SDS011;16816;44.444;26.152;2022-11-20T02:35:53;102.70;;;54.30;;
29960;SDS011;16816;44.444;26.152;2022-11-20T02:40:58;103.00;;;53.60;;
29960;SDS011;16816;44.444;26.152;2022-11-20T02:46:02;100.80;;;53.27;;
29960;SDS011;16816;44.444;26.152;2022-11-20T02:51:06;103.78;;;54.25;;
29960;SDS011;16816;44.444;26.152;2022-11-20T02:56:11;103.43;;;56.70;;
29960;SDS011;16816;44.444;26.152;2022-11-20T03:01:15;102.53;;;54.30;;
29960;SDS011;16816;44.444;26.152;2022-11-20T03:06:19;106.25;;;57.63;;
29960;SDS011;16816;44.444;26.152;2022-11-20T03:11:24;103.55;;;55.13;;
29960;SDS011;16816;44.444;26.152;2022-11-20T03:16:28;102.60;;;54.73;;
29960;SDS011;16816;44.444;26.152;2022-11-20T03:21:32;106.80;;;53.88;;
29960;SDS011;16816;44.444;26.152;2022-11-20T03:26:38;108.30;;;58.75;;
29960;SDS011;16816;44.444;26.152;2022-11-20T03:31:42;105.57;;;54.05;;
29960;SDS011;16816;44.444;26.152;2022-11-20T03:36:46;105.93;;;56.47;;
29960;SDS011;16816;44.444;26.152;2022-11-20T03:41:51;107.28;;;56.28;;
29960;SDS011;16816;44.444;26.152;2022-11-20T03:46:55;108.67;;;57.97;;
29960;SDS011;16816;44.444;26.152;2022-11-20T03:51:58;109.70;;;60.33;;
29960;SDS011;16816;44.444;26.152;2022-11-20T03:57:04;110.78;;;64.10;;
29960;SDS011;16816;44.444;26.152;2022-11-20T04:02:07;117.53;;;78.00;;
29960;SDS011;16816;44.444;26.152;2022-11-20T04:07:11;121.10;;;82.13;;
29960;SDS011;16816;44.444;26.152;2022-11-20T04:12:17;123.78;;;87.15;;
29960;SDS011;16816;44.444;26.152;2022-11-20T04:17:22;131.85;;;93.68;;
29960;SDS011;16816;44.444;26.152;2022-11-20T04:22:25;130.93;;;96.10;;
29960;SDS011;16816;44.444;26.152;2022-11-20T04:27:31;137.85;;;105.78;;
29960;SDS011;16816;44.444;26.152;2022-11-20T04:32:35;142.18;;;109.38;;
29960;SDS011;16816;44.444;26.152;2022-11-20T04:37:39;144.23;;;110.10;;
29960;SDS011;16816;44.444;26.152;2022-11-20T04:42:44;148.30;;;113.10;;
29960;SDS011;16816;44.444;26.152;2022-11-20T04:47:48;147.87;;;115.77;;
29960;SDS011;16816;44.444;26.152;2022-11-20T04:52:51;147.32;;;111.80;;
29960;SDS011;16816;44.444;26.152;2022-11-20T04:57:57;150.50;;;114.88;;
29960;SDS011;16816;44.444;26.152;2022-11-20T05:03:01;151.20;;;115.78;;
29960;SDS011;16816;44.444;26.152;2022-11-20T05:08:05;153.63;;;115.00;;
29960;SDS011;16816;44.444;26.152;2022-11-20T05:13:10;149.55;;;111.32;;
29960;SDS011;16816;44.444;26.152;2022-11-20T05:18:14;150.60;;;110.47;;
29960;SDS011;16816;44.444;26.152;2022-11-20T05:23:17;151.40;;;110.07;;
29960;SDS011;16816;44.444;26.152;2022-11-20T05:28:23;149.45;;;108.15;;
29960;SDS011;16816;44.444;26.152;2022-11-20T05:33:27;147.43;;;105.05;;
29960;SDS011;16816;44.444;26.152;2022-11-20T05:38:31;148.75;;;104.65;;
29960;SDS011;16816;44.444;26.152;2022-11-20T05:43:37;149.68;;;107.05;;
29960;SDS011;16816;44.444;26.152;2022-11-20T05:48:42;145.98;;;101.05;;
29960;SDS011;16816;44.444;26.152;2022-11-20T05:53:46;144.30;;;96.07;;
29960;SDS011;16816;44.444;26.152;2022-11-20T05:58:51;144.52;;;96.85;;
29960;SDS011;16816;44.444;26.152;2022-11-20T06:03:55;141.50;;;93.20;;
29960;SDS011;16816;44.444;26.152;2022-11-20T06:08:59;143.57;;;94.85;;
29960;SDS011;16816;44.444;26.152;2022-11-20T06:14:04;142.70;;;92.85;;
29960;SDS011;16816;44.444;26.152;2022-11-20T06:19:09;140.90;;;95.40;;
29960;SDS011;16816;44.444;26.152;2022-11-20T06:24:12;145.40;;;98.57;;
29960;SDS011;16816;44.444;26.152;2022-11-20T06:29:18;144.65;;;100.72;;
29960;SDS011;16816;44.444;26.152;2022-11-20T06:34:22;143.95;;;99.25;;
29960;SDS011;16816;44.444;26.152;2022-11-20T06:39:26;160.82;;;122.00;;
29960;SDS011;16816;44.444;26.152;2022-11-20T06:44:31;185.18;;;164.70;;
29960;SDS011;16816;44.444;26.152;2022-11-20T06:49:35;219.43;;;196.77;;
29960;SDS011;16816;44.444;26.152;2022-11-20T06:54:40;220.30;;;197.98;;
29960;SDS011;16816;44.444;26.152;2022-11-20T06:59:45;215.25;;;192.63;;
29960;SDS011;16816;44.444;26.152;2022-11-20T07:04:49;208.50;;;186.73;;
29960;SDS011;16816;44.444;26.152;2022-11-20T07:09:53;204.68;;;183.10;;
29960;SDS011;16816;44.444;26.152;2022-11-20T07:14:58;223.88;;;200.80;;
29960;SDS011;16816;44.444;26.152;2022-11-20T07:20:02;223.37;;;200.13;;
29960;SDS011;16816;44.444;26.152;2022-11-20T07:25:07;220.70;;;197.80;;
29960;SDS011;16816;44.444;26.152;2022-11-20T07:35:18;208.40;;;185.88;;
29960;SDS011;16816;44.444;26.152;2022-11-20T07:40:22;187.40;;;160.18;;
29960;SDS011;16816;44.444;26.152;2022-11-20T07:45:27;172.35;;;137.98;;
29960;SDS011;16816;44.444;26.152;2022-11-20T07:50:31;160.43;;;123.83;;
29960;SDS011;16816;44.444;26.152;2022-11-20T07:55:35;144.10;;;97.43;;
29960;SDS011;16816;44.444;26.152;2022-11-20T08:00:40;139.50;;;85.57;;
29960;SDS011;16816;44.444;26.152;2022-11-20T08:05:44;130.93;;;74.43;;
29960;SDS011;16816;44.444;26.152;2022-11-20T08:10:48;130.02;;;69.10;;
29960;SDS011;16816;44.444;26.152;2022-11-20T08:15:53;123.38;;;58.33;;
29960;SDS011;16816;44.444;26.152;2022-11-20T08:20:57;117.87;;;44.87;;
29960;SDS011;16816;44.444;26.152;2022-11-20T08:26:01;109.35;;;31.83;;
29960;SDS011;16816;44.444;26.152;2022-11-20T08:31:06;105.43;;;29.75;;
29960;SDS011;16816;44.444;26.152;2022-11-20T08:36:12;111.72;;;44.17;;
29960;SDS011;16816;44.444;26.152;2022-11-20T08:41:16;114.47;;;53.38;;
29960;SDS011;16816;44.444;26.152;2022-11-20T08:46:33;119.13;;;66.05;;
29960;SDS011;16816;44.444;26.152;2022-11-20T08:51:38;119.25;;;69.68;;
29960;SDS011;16816;44.444;26.152;2022-11-20T08:56:42;125.75;;;78.78;;
29960;SDS011;16816;44.444;26.152;2022-11-20T09:01:47;129.82;;;85.30;;
29960;SDS011;16816;44.444;26.152;2022-11-20T09:06:52;134.88;;;93.60;;
29960;SDS011;16816;44.444;26.152;2022-11-20T09:11:55;137.80;;;95.50;;
29960;SDS011;16816;44.444;26.152;2022-11-20T09:17:01;140.60;;;98.43;;
29960;SDS011;16816;44.444;26.152;2022-11-20T09:22:04;139.37;;;93.87;;
29960;SDS011;16816;44.444;26.152;2022-11-20T09:27:08;139.90;;;94.22;;
29960;SDS011;16816;44.444;26.152;2022-11-20T09:32:13;133.40;;;80.13;;
29960;SDS011;16816;44.444;26.152;2022-11-20T09:37:17;130.77;;;79.47;;
29960;SDS011;16816;44.444;26.152;2022-11-20T09:42:27;134.23;;;80.70;;
29960;SDS011;16816;44.444;26.152;2022-11-20T09:47:41;133.03;;;76.37;;
29960;SDS011;16816;44.444;26.152;2022-11-20T09:52:54;136.05;;;77.75;;
29960;SDS011;16816;44.444;26.152;2022-11-20T09:58:04;135.13;;;75.75;;
29960;SDS011;16816;44.444;26.152;2022-11-20T10:03:13;125.80;;;60.83;;
29960;SDS011;16816;44.444;26.152;2022-11-20T10:08:21;124.68;;;60.25;;
29960;SDS011;16816;44.444;26.152;2022-11-20T10:13:29;122.68;;;56.65;;
29960;SDS011;16816;44.444;26.152;2022-11-20T10:18:44;122.70;;;59.42;;
29960;SDS011;16816;44.444;26.152;2022-11-20T10:23:59;126.95;;;66.78;;
29960;SDS011;16816;44.444;26.152;2022-11-20T10:29:27;128.10;;;70.88;;
29960;SDS011;16816;44.444;26.152;2022-11-20T10:34:38;133.35;;;78.38;;
29960;SDS011;16816;44.444;26.152;2022-11-20T10:39:50;133.85;;;81.22;;
29960;SDS011;16816;44.444;26.152;2022-11-20T10:44:58;134.25;;;81.55;;
29960;SDS011;16816;44.444;26.152;2022-11-20T10:50:11;134.68;;;80.93;;
29960;SDS011;16816;44.444;26.152;2022-11-20T10:55:26;135.60;;;84.17;;
29960;SDS011;16816;44.444;26.152;2022-11-20T11:00:33;139.95;;;89.40;;
29960;SDS011;16816;44.444;26.152;2022-11-20T11:05:39;143.43;;;95.78;;
29960;SDS011;16816;44.444;26.152;2022-11-20T11:10:46;146.70;;;96.65;;
29960;SDS011;16816;44.444;26.152;2022-11-20T11:15:53;151.55;;;106.32;;
29960;SDS011;16816;44.444;26.152;2022-11-20T11:20:59;168.27;;;133.93;;
29960;SDS011;16816;44.444;26.152;2022-11-20T11:26:04;174.18;;;137.77;;
29960;SDS011;16816;44.444;26.152;2022-11-20T11:31:10;176.63;;;138.63;;
29960;SDS011;16816;44.444;26.152;2022-11-20T11:36:17;184.32;;;148.20;;
29960;SDS011;16816;44.444;26.152;2022-11-20T11:41:23;191.43;;;155.75;;
29960;SDS011;16816;44.444;26.152;2022-11-20T11:46:33;189.85;;;155.10;;
29960;SDS011;16816;44.444;26.152;2022-11-20T11:51:41;194.67;;;162.53;;
29960;SDS011;16816;44.444;26.152;2022-11-20T11:56:51;196.48;;;163.55;;
29960;SDS011;16816;44.444;26.152;2022-11-20T12:01:56;192.60;;;156.48;;
29960;SDS011;16816;44.444;26.152;2022-11-20T12:07:03;200.55;;;161.30;;
29960;SDS011;16816;44.444;26.152;2022-11-20T12:13:42;202.55;;;165.27;;
29960;SDS011;16816;44.444;26.152;2022-11-20T12:18:49;202.85;;;166.98;;
29960;SDS011;16816;44.444;26.152;2022-11-20T12:24:00;203.98;;;166.63;;
29960;SDS011;16816;44.444;26.152;2022-11-20T12:29:12;201.67;;;165.07;;
29960;SDS011;16816;44.444;26.152;2022-11-20T12:34:27;207.60;;;172.68;;
29960;SDS011;16816;44.444;26.152;2022-11-20T12:39:41;212.73;;;178.55;;
29960;SDS011;16816;44.444;26.152;2022-11-20T12:44:57;221.88;;;192.88;;
29960;SDS011;16816;44.444;26.152;2022-11-20T12:50:15;220.50;;;186.32;;
29960;SDS011;16816;44.444;26.152;2022-11-20T12:55:28;213.32;;;174.85;;
29960;SDS011;16816;44.444;26.152;2022-11-20T13:00:41;213.60;;;178.10;;
29960;SDS011;16816;44.444;26.152;2022-11-20T13:05:53;215.48;;;187.75;;
29960;SDS011;16816;44.444;26.152;2022-11-20T13:11:02;214.10;;;185.13;;
29960;SDS011;16816;44.444;26.152;2022-11-20T13:16:14;211.27;;;180.98;;
29960;SDS011;16816;44.444;26.152;2022-11-20T13:21:21;207.82;;;178.52;;
29960;SDS011;16816;44.444;26.152;2022-11-20T13:26:26;207.00;;;178.00;;
29960;SDS011;16816;44.444;26.152;2022-11-20T13:31:32;200.63;;;168.27;;
29960;SDS011;16816;44.444;26.152;2022-11-20T13:36:38;196.73;;;162.60;;
29960;SDS011;16816;44.444;26.152;2022-11-20T13:41:55;202.20;;;176.85;;
29960;SDS011;16816;44.444;26.152;2022-11-20T13:47:01;201.52;;;174.10;;
29960;SDS011;16816;44.444;26.152;2022-11-20T13:52:14;198.93;;;174.50;;
29960;SDS011;16816;44.444;26.152;2022-11-20T13:57:34;211.18;;;187.98;;
29960;SDS011;16816;44.444;26.152;2022-11-20T14:03:08;213.55;;;190.45;;
29960;SDS011;16816;44.444;26.152;2022-11-20T14:08:17;220.30;;;196.32;;
29960;SDS011;16816;44.444;26.152;2022-11-20T14:13:28;223.07;;;198.90;;
29960;SDS011;16816;44.444;26.152;2022-11-20T14:18:33;233.32;;;208.65;;
29960;SDS011;16816;44.444;26.152;2022-11-20T14:23:37;236.02;;;211.23;;
29960;SDS011;16816;44.444;26.152;2022-11-20T14:28:41;246.23;;;220.52;;
29960;SDS011;16816;44.444;26.152;2022-11-20T14:33:47;241.65;;;216.23;;
29960;SDS011;16816;44.444;26.152;2022-11-20T14:38:51;246.98;;;221.25;;
29960;SDS011;16816;44.444;26.152;2022-11-20T14:43:56;248.20;;;222.40;;
29960;SDS011;16816;44.444;26.152;2022-11-20T14:49:02;248.37;;;222.30;;
29960;SDS011;16816;44.444;26.152;2022-11-20T14:54:09;247.10;;;221.07;;
29960;SDS011;16816;44.444;26.152;2022-11-20T14:59:21;233.38;;;207.82;;
29960;SDS011;16816;44.444;26.152;2022-11-20T15:04:28;245.70;;;219.57;;
29960;SDS011;16816;44.444;26.152;2022-11-20T15:09:32;245.67;;;218.63;;
29960;SDS011;16816;44.444;26.152;2022-11-20T15:14:35;233.48;;;208.23;;
29960;SDS011;16816;44.444;26.152;2022-11-20T15:19:41;243.27;;;217.23;;
29960;SDS011;16816;44.444;26.152;2022-11-20T15:24:45;259.07;;;232.43;;
29960;SDS011;16816;44.444;26.152;2022-11-20T15:29:49;257.25;;;230.57;;
29960;SDS011;16816;44.444;26.152;2022-11-20T15:34:54;262.63;;;235.55;;
29960;SDS011;16816;44.444;26.152;2022-11-20T15:39:58;252.27;;;226.07;;
29960;SDS011;16816;44.444;26.152;2022-11-20T15:45:02;263.00;;;235.93;;
29960;SDS011;16816;44.444;26.152;2022-11-20T15:50:09;266.23;;;238.82;;
29960;SDS011;16816;44.444;26.152;2022-11-20T15:55:17;272.05;;;243.98;;
29960;SDS011;16816;44.444;26.152;2022-11-20T16:00:20;282.70;;;253.88;;
29960;SDS011;16816;44.444;26.152;2022-11-20T16:05:28;282.92;;;254.15;;
29960;SDS011;16816;44.444;26.152;2022-11-20T16:10:32;282.25;;;253.30;;
29960;SDS011;16816;44.444;26.152;2022-11-20T16:15:36;285.00;;;255.85;;
29960;SDS011;16816;44.444;26.152;2022-11-20T16:20:51;280.92;;;251.95;;
29960;SDS011;16816;44.444;26.152;2022-11-20T16:25:56;277.08;;;248.40;;
29960;SDS011;16816;44.444;26.152;2022-11-20T16:31:07;274.95;;;246.13;;
29960;SDS011;16816;44.444;26.152;2022-11-20T16:36:13;292.50;;;262.77;;
29960;SDS011;16816;44.444;26.152;2022-11-20T16:41:17;274.50;;;245.88;;
29960;SDS011;16816;44.444;26.152;2022-11-20T16:46:22;268.88;;;240.52;;
29960;SDS011;16816;44.444;26.152;2022-11-20T16:51:28;271.70;;;243.27;;
29960;SDS011;16816;44.444;26.152;2022-11-20T16:56:32;266.60;;;238.43;;
29960;SDS011;16816;44.444;26.152;2022-11-20T17:01:36;266.20;;;237.90;;
29960;SDS011;16816;44.444;26.152;2022-11-20T17:06:44;254.63;;;227.00;;
29960;SDS011;16816;44.444;26.152;2022-11-20T17:16:52;268.50;;;239.98;;
29960;SDS011;16816;44.444;26.152;2022-11-20T17:21:57;267.30;;;238.77;;
29960;SDS011;16816;44.444;26.152;2022-11-20T17:27:01;262.97;;;234.80;;
29960;SDS011;16816;44.444;26.152;2022-11-20T17:32:05;263.90;;;235.38;;
29960;SDS011;16816;44.444;26.152;2022-11-20T17:37:10;270.42;;;241.52;;
29960;SDS011;16816;44.444;26.152;2022-11-20T17:42:14;265.47;;;237.07;;
29960;SDS011;16816;44.444;26.152;2022-11-20T17:47:34;261.50;;;233.02;;
29960;SDS011;16816;44.444;26.152;2022-11-20T17:52:40;263.40;;;234.90;;
29960;SDS011;16816;44.444;26.152;2022-11-20T17:57:44;260.77;;;232.63;;
29960;SDS011;16816;44.444;26.152;2022-11-20T18:02:54;259.10;;;230.82;;
29960;SDS011;16816;44.444;26.152;2022-11-20T18:08:00;255.73;;;227.32;;
29960;SDS011;16816;44.444;26.152;2022-11-20T18:13:04;251.15;;;221.00;;
29960;SDS011;16816;44.444;26.152;2022-11-20T18:18:08;248.63;;;212.35;;
29960;SDS011;16816;44.444;26.152;2022-11-20T18:23:13;251.95;;;217.63;;
29960;SDS011;16816;44.444;26.152;2022-11-20T18:28:17;248.23;;;211.88;;
29960;SDS011;16816;44.444;26.152;2022-11-20T18:33:21;252.23;;;213.27;;
29960;SDS011;16816;44.444;26.152;2022-11-20T18:38:31;251.98;;;209.30;;
29960;SDS011;16816;44.444;26.152;2022-11-20T18:43:35;247.97;;;204.13;;
29960;SDS011;16816;44.444;26.152;2022-11-20T18:48:56;249.48;;;200.75;;
29960;SDS011;16816;44.444;26.152;2022-11-20T18:54:02;248.75;;;198.85;;
29960;SDS011;16816;44.444;26.152;2022-11-20T18:59:07;246.65;;;188.60;;
29960;SDS011;16816;44.444;26.152;2022-11-20T19:04:12;243.75;;;181.93;;
29960;SDS011;16816;44.444;26.152;2022-11-20T19:09:18;245.40;;;181.02;;
29960;SDS011;16816;44.444;26.152;2022-11-20T19:14:22;242.13;;;173.80;;
29960;SDS011;16816;44.444;26.152;2022-11-20T19:19:27;237.75;;;173.43;;
29960;SDS011;16816;44.444;26.152;2022-11-20T19:24:32;241.23;;;170.80;;
29960;SDS011;16816;44.444;26.152;2022-11-20T19:29:37;240.15;;;170.27;;
29960;SDS011;16816;44.444;26.152;2022-11-20T19:34:40;240.07;;;162.70;;
29960;SDS011;16816;44.444;26.152;2022-11-20T19:39:46;237.50;;;158.15;;
29960;SDS011;16816;44.444;26.152;2022-11-20T19:44:50;235.13;;;157.43;;
29960;SDS011;16816;44.444;26.152;2022-11-20T19:49:54;235.88;;;155.15;;
29960;SDS011;16816;44.444;26.152;2022-11-20T19:54:59;232.65;;;148.48;;
29960;SDS011;16816;44.444;26.152;2022-11-20T20:00:04;231.50;;;150.07;;
29960;SDS011;16816;44.444;26.152;2022-11-20T20:05:08;229.60;;;147.40;;
29960;SDS011;16816;44.444;26.152;2022-11-20T20:10:14;231.85;;;145.93;;
29960;SDS011;16816;44.444;26.152;2022-11-20T20:15:19;230.20;;;141.82;;
29960;SDS011;16816;44.444;26.152;2022-11-20T20:20:23;231.85;;;144.52;;
29960;SDS011;16816;44.444;26.152;2022-11-20T20:25:29;233.70;;;147.43;;
29960;SDS011;16816;44.444;26.152;2022-11-20T20:30:34;229.10;;;142.63;;
29960;SDS011;16816;44.444;26.152;2022-11-20T20:35:39;229.23;;;140.07;;
29960;SDS011;16816;44.444;26.152;2022-11-20T20:40:47;230.65;;;135.82;;
29960;SDS011;16816;44.444;26.152;2022-11-20T20:45:51;233.02;;;137.38;;
29960;SDS011;16816;44.444;26.152;2022-11-20T20:50:56;232.27;;;134.65;;
29960;SDS011;16816;44.444;26.152;2022-11-20T20:56:02;229.03;;;129.33;;
29960;SDS011;16816;44.444;26.152;2022-11-20T21:01:07;226.80;;;121.85;;
29960;SDS011;16816;44.444;26.152;2022-11-20T21:06:11;228.93;;;124.43;;
29960;SDS011;16816;44.444;26.152;2022-11-20T21:11:18;230.00;;;123.05;;
29960;SDS011;16816;44.444;26.152;2022-11-20T21:16:22;230.82;;;124.10;;
29960;SDS011;16816;44.444;26.152;2022-11-20T21:21:27;238.43;;;121.85;;
29960;SDS011;16816;44.444;26.152;2022-11-20T21:26:49;231.07;;;121.80;;
29960;SDS011;16816;44.444;26.152;2022-11-20T21:31:53;240.95;;;124.32;;
29960;SDS011;16816;44.444;26.152;2022-11-20T21:36:57;231.05;;;122.20;;
29960;SDS011;16816;44.444;26.152;2022-11-20T21:42:03;261.10;;;124.40;;
29960;SDS011;16816;44.444;26.152;2022-11-20T21:47:07;275.00;;;120.22;;
29960;SDS011;16816;44.444;26.152;2022-11-20T21:52:11;241.88;;;116.65;;
29960;SDS011;16816;44.444;26.152;2022-11-20T21:57:16;266.10;;;122.40;;
29960;SDS011;16816;44.444;26.152;2022-11-20T22:02:20;235.00;;;114.67;;
29960;SDS011;16816;44.444;26.152;2022-11-20T22:07:24;242.88;;;119.63;;
29960;SDS011;16816;44.444;26.152;2022-11-20T22:12:30;237.17;;;116.83;;
29960;SDS011;16816;44.444;26.152;2022-11-20T22:17:34;246.73;;;109.97;;
29960;SDS011;16816;44.444;26.152;2022-11-20T22:22:56;232.38;;;105.45;;
29960;SDS011;16816;44.444;26.152;2022-11-20T22:28:02;231.65;;;104.00;;
29960;SDS011;16816;44.444;26.152;2022-11-20T22:33:10;296.98;;;115.13;;
29960;SDS011;16816;44.444;26.152;2022-11-20T22:38:15;243.60;;;107.25;;
29960;SDS011;16816;44.444;26.152;2022-11-20T22:43:20;228.57;;;101.57;;
29960;SDS011;16816;44.444;26.152;2022-11-20T22:48:24;232.13;;;100.57;;
29960;SDS011;16816;44.444;26.152;2022-11-20T22:53:28;242.88;;;104.10;;
29960;SDS011;16816;44.444;26.152;2022-11-20T22:58:33;234.05;;;99.25;;
29960;SDS011;16816;44.444;26.152;2022-11-20T23:03:38;235.18;;;101.00;;
29960;SDS011;16816;44.444;26.152;2022-11-20T23:08:43;222.53;;;98.23;;
29960;SDS011;16816;44.444;26.152;2022-11-20T23:13:52;231.27;;;99.90;;
29960;SDS011;16816;44.444;26.152;2022-11-20T23:18:58;229.07;;;104.35;;
29960;SDS011;16816;44.444;26.152;2022-11-20T23:24:03;226.60;;;100.33;;
29960;SDS011;16816;44.444;26.152;2022-11-20T23:29:08;242.27;;;104.78;;
29960;SDS011;16816;44.444;26.152;2022-11-20T23:34:13;244.25;;;103.93;;
29960;SDS011;16816;44.444;26.152;2022-11-20T23:39:17;234.27;;;105.00;;
29960;SDS011;16816;44.444;26.152;2022-11-20T23:44:22;231.10;;;104.63;;
29960;SDS011;16816;44.444;26.152;2022-11-20T23:49:27;237.13;;;105.00;;
29960;SDS011;16816;44.444;26.152;2022-11-20T23:54:31;258.63;;;108.70;;
29960;SDS011;16816;44.444;26.152;2022-11-20T23:59:36;253.52;;;107.30;;
